createdAt,value
2024-02-28T00:00:50.564Z,18.34
2024-02-28T00:03:17.451Z,18.36
2024-02-28T00:05:44.329Z,18.31
2024-02-28T00:08:11.156Z,18.35
2024-02-28T00:10:37.945Z,18.35
2024-02-28T00:13:04.743Z,18.33
2024-02-28T00:15:31.699Z,18.34
2024-02-28T00:17:58.594Z,18.42
2024-02-28T00:20:25.403Z,18.42
2024-02-28T00:22:52.228Z,18.34
2024-02-28T00:25:19.063Z,18.35
2024-02-28T00:27:45.958Z,18.34
2024-02-28T00:30:12.878Z,18.38
2024-02-28T00:32:39.929Z,18.36
2024-02-28T00:35:06.802Z,18.35
2024-02-28T00:37:33.636Z,18.34
2024-02-28T00:40:00.452Z,18.40
2024-02-28T00:42:27.350Z,18.39
2024-02-28T00:44:54.216Z,18.39
2024-02-28T00:47:21.037Z,18.43
2024-02-28T00:49:47.850Z,18.39
2024-02-28T00:52:14.691Z,18.45
2024-02-28T00:54:41.520Z,18.44
2024-02-28T00:57:08.351Z,18.44
2024-02-28T00:59:35.218Z,18.41
2024-02-28T01:02:02.058Z,18.43
2024-02-28T01:04:28.879Z,18.45
2024-02-28T01:06:55.713Z,18.46
2024-02-28T01:09:22.575Z,18.44
2024-02-28T01:11:49.422Z,18.45
2024-02-28T01:14:16.283Z,18.49
2024-02-28T01:16:43.084Z,18.51
2024-02-28T01:19:09.892Z,18.51
2024-02-28T01:21:36.704Z,18.53
2024-02-28T01:24:03.562Z,18.54
2024-02-28T01:26:30.408Z,18.55
2024-02-28T01:28:57.233Z,18.58
2024-02-28T01:31:24.061Z,18.58
2024-02-28T01:33:50.923Z,18.59
2024-02-28T01:36:17.785Z,18.68
2024-02-28T01:38:44.612Z,18.65
2024-02-28T01:41:11.440Z,18.65
2024-02-28T01:43:38.477Z,18.68
2024-02-28T01:46:05.328Z,18.67
2024-02-28T01:48:32.201Z,18.67
2024-02-28T01:50:59.061Z,18.68
2024-02-28T01:53:25.886Z,18.67
2024-02-28T01:55:52.784Z,18.71
2024-02-28T01:58:19.590Z,18.71
2024-02-28T02:00:46.449Z,18.73
2024-02-28T02:03:13.370Z,18.74
2024-02-28T02:05:40.195Z,18.78
2024-02-28T02:08:06.992Z,18.78
2024-02-28T02:10:33.838Z,18.81
2024-02-28T02:13:00.722Z,18.84
2024-02-28T02:15:27.610Z,18.85
2024-02-28T02:17:54.580Z,18.87
2024-02-28T02:20:21.782Z,18.91
2024-02-28T02:22:48.666Z,18.90
2024-02-28T02:25:15.574Z,18.91
2024-02-28T02:27:42.467Z,18.91
2024-02-28T02:30:09.396Z,18.92
2024-02-28T02:32:36.287Z,18.93
2024-02-28T02:35:03.102Z,18.95
2024-02-28T02:37:29.909Z,18.97
2024-02-28T02:39:56.755Z,18.97
2024-02-28T02:42:23.618Z,18.99
2024-02-28T02:44:50.458Z,18.98
2024-02-28T02:47:17.295Z,19.01
2024-02-28T02:49:44.160Z,19.00
2024-02-28T02:52:11.000Z,19.02
2024-02-28T02:54:37.913Z,19.02
2024-02-28T02:57:04.760Z,19.04
2024-02-28T02:59:31.606Z,19.08
2024-02-28T03:01:58.461Z,19.09
2024-02-28T03:04:25.276Z,19.11
2024-02-28T03:06:52.185Z,19.16
2024-02-28T03:09:19.022Z,19.17
2024-02-28T03:11:45.917Z,19.20
2024-02-28T03:14:12.775Z,19.20
2024-02-28T03:16:39.574Z,19.20
2024-02-28T03:19:06.408Z,19.21
2024-02-28T03:21:33.242Z,19.22
2024-02-28T03:24:00.199Z,19.22
2024-02-28T03:26:27.020Z,19.25
2024-02-28T03:28:53.846Z,19.27
2024-02-28T03:31:20.667Z,19.29
2024-02-28T03:33:47.473Z,19.29
2024-02-28T03:36:14.319Z,19.28
2024-02-28T03:38:41.164Z,19.32
2024-02-28T03:41:07.962Z,19.30
2024-02-28T03:43:34.763Z,19.34
2024-02-28T03:46:01.630Z,19.32
2024-02-28T03:48:28.545Z,19.34
2024-02-28T03:50:55.377Z,19.36
2024-02-28T03:53:22.225Z,19.38
2024-02-28T03:55:49.053Z,19.37
2024-02-28T03:58:15.881Z,19.36
2024-02-28T04:00:42.779Z,19.37
2024-02-28T04:03:09.593Z,19.38
2024-02-28T04:05:36.691Z,19.40
2024-02-28T04:08:03.518Z,19.39
2024-02-28T04:10:30.301Z,19.41
2024-02-28T04:12:57.187Z,19.46
2024-02-28T04:15:24.122Z,19.47
2024-02-28T04:17:50.985Z,19.49
2024-02-28T04:20:17.799Z,19.49
2024-02-28T04:22:44.601Z,19.49
2024-02-28T04:25:11.421Z,19.50
2024-02-28T04:27:38.324Z,19.52
2024-02-28T04:30:05.254Z,19.50
2024-02-28T04:32:32.141Z,19.53
2024-02-28T04:34:58.963Z,19.55
2024-02-28T04:37:25.764Z,19.57
2024-02-28T04:39:52.709Z,19.55
2024-02-28T04:42:19.676Z,19.61
2024-02-28T04:44:46.540Z,19.60
2024-02-28T04:47:13.388Z,19.59
2024-02-28T04:49:40.282Z,19.59
2024-02-28T04:52:07.107Z,19.56
2024-02-28T04:54:34.002Z,19.57
2024-02-28T04:57:00.869Z,19.59
2024-02-28T04:59:27.632Z,19.56
2024-02-28T05:01:54.582Z,19.61
2024-02-28T05:04:21.430Z,19.58
2024-02-28T05:06:48.215Z,19.60
2024-02-28T05:09:15.201Z,19.60
2024-02-28T05:11:42.064Z,19.66
2024-02-28T05:14:08.873Z,19.72
2024-02-28T05:16:35.688Z,19.79
2024-02-28T05:19:02.577Z,19.77
2024-02-28T05:21:29.431Z,19.77
2024-02-28T05:23:56.355Z,19.74
2024-02-28T05:26:23.159Z,19.68
2024-02-28T05:28:49.994Z,19.66
2024-02-28T05:31:16.862Z,19.67
2024-02-28T05:33:43.718Z,19.68
2024-02-28T05:36:10.660Z,19.68
2024-02-28T05:38:37.483Z,19.66
2024-02-28T05:41:04.298Z,19.93
2024-02-28T05:43:31.093Z,19.81
2024-02-28T05:45:57.955Z,19.79
2024-02-28T05:48:24.806Z,19.75
2024-02-28T05:50:51.630Z,19.73
2024-02-28T05:53:18.428Z,19.77
2024-02-28T05:55:45.262Z,19.78
2024-02-28T05:58:12.079Z,19.81
2024-02-28T06:00:39.031Z,19.83
2024-02-28T06:03:05.984Z,19.83
2024-02-28T06:05:32.865Z,19.82
2024-02-28T06:07:59.663Z,19.77
2024-02-28T06:10:26.477Z,19.77
2024-02-28T06:12:53.408Z,19.78
2024-02-28T06:15:20.359Z,19.77
2024-02-28T06:17:47.170Z,19.75
2024-02-28T06:20:13.983Z,19.77
2024-02-28T06:22:40.829Z,19.75
2024-02-28T06:25:07.714Z,19.75
2024-02-28T06:27:34.601Z,19.74
2024-02-28T06:30:01.434Z,19.73
2024-02-28T06:32:28.366Z,19.75
2024-02-28T06:34:55.238Z,19.67
2024-02-28T06:37:22.074Z,19.69
2024-02-28T06:39:48.955Z,19.70
2024-02-28T06:42:15.813Z,19.75
2024-02-28T06:44:42.617Z,19.70
2024-02-28T06:47:09.421Z,19.65
2024-02-28T06:49:36.265Z,19.60
2024-02-28T06:52:03.229Z,19.56
2024-02-28T06:54:30.195Z,19.59
2024-02-28T06:56:57.032Z,19.55
2024-02-28T06:59:23.852Z,19.54
2024-02-28T07:01:50.834Z,19.51
2024-02-28T07:04:17.861Z,19.51
2024-02-28T07:06:44.819Z,19.54
2024-02-28T07:09:11.690Z,19.49
2024-02-28T07:11:38.544Z,19.49
2024-02-28T07:14:05.394Z,19.47
2024-02-28T07:16:32.226Z,19.45
2024-02-28T07:18:59.097Z,19.42
2024-02-28T07:21:26.023Z,19.39
2024-02-28T07:23:52.843Z,19.36
2024-02-28T07:26:26.752Z,19.35
2024-02-28T07:28:54.459Z,19.33
2024-02-28T07:31:21.268Z,19.32
2024-02-28T07:33:48.193Z,19.33
2024-02-28T07:36:15.043Z,19.33
2024-02-28T07:38:41.857Z,19.28
2024-02-28T07:41:08.660Z,19.29
2024-02-28T07:43:35.466Z,19.43
2024-02-28T07:46:02.594Z,19.61
2024-02-28T07:48:29.701Z,19.71
2024-02-28T07:50:56.544Z,19.97
2024-02-28T07:53:23.382Z,19.95
2024-02-28T07:55:50.221Z,19.83
2024-02-28T07:58:17.107Z,19.74
2024-02-28T08:00:44.027Z,19.93
2024-02-28T08:03:11.034Z,19.82
2024-02-28T08:05:37.827Z,20.02
2024-02-28T08:08:04.624Z,19.90
2024-02-28T08:10:31.456Z,20.09
2024-02-28T08:12:58.442Z,20.22
2024-02-28T08:15:25.300Z,20.22
2024-02-28T08:17:52.155Z,20.13
2024-02-28T08:20:18.975Z,20.07
2024-02-28T08:22:45.803Z,20.02
2024-02-28T08:25:12.610Z,19.96
2024-02-28T08:27:39.453Z,19.89
2024-02-28T08:30:06.306Z,19.86
2024-02-28T08:32:33.149Z,19.83
2024-02-28T08:35:00.040Z,19.80
2024-02-28T08:37:26.868Z,19.79
2024-02-28T08:39:53.790Z,19.71
2024-02-28T08:42:20.685Z,19.77
2024-02-28T08:44:47.530Z,19.68
2024-02-28T08:47:14.334Z,19.68
2024-02-28T08:49:41.172Z,19.75
2024-02-28T08:52:08.144Z,19.68
2024-02-28T08:54:35.172Z,19.64
2024-02-28T08:57:04.267Z,19.56
2024-02-28T08:59:31.418Z,19.55
2024-02-28T09:01:58.347Z,19.56
2024-02-28T09:04:25.189Z,19.51
2024-02-28T09:06:52.096Z,19.48
2024-02-28T09:09:18.993Z,19.45
2024-02-28T09:11:45.910Z,19.38
2024-02-28T09:14:12.828Z,19.40
2024-02-28T09:16:39.631Z,19.37
2024-02-28T09:19:06.604Z,19.35
2024-02-28T09:21:33.556Z,19.30
2024-02-28T09:24:00.402Z,19.31
2024-02-28T09:26:27.302Z,19.31
2024-02-28T09:28:54.136Z,19.32
2024-02-28T09:31:21.310Z,19.25
2024-02-28T09:33:48.303Z,19.26
2024-02-28T09:36:15.122Z,19.21
2024-02-28T09:38:41.953Z,19.23
2024-02-28T09:41:08.849Z,19.22
2024-02-28T09:43:35.724Z,19.26
2024-02-28T09:46:02.626Z,19.30
2024-02-28T09:48:29.504Z,19.21
2024-02-28T09:50:56.396Z,19.21
2024-02-28T09:53:23.227Z,19.22
2024-02-28T09:55:50.091Z,19.25
2024-02-28T09:58:16.982Z,19.20
2024-02-28T10:00:43.902Z,19.22
2024-02-28T10:03:10.769Z,19.17
2024-02-28T10:05:37.603Z,19.17
2024-02-28T10:08:04.402Z,19.18
2024-02-28T10:10:31.205Z,19.12
2024-02-28T10:12:58.146Z,19.12
2024-02-28T10:15:25.171Z,19.11
2024-02-28T10:17:52.018Z,19.21
2024-02-28T10:20:18.890Z,19.17
2024-02-28T10:22:45.819Z,19.14
2024-02-28T10:25:12.725Z,19.09
2024-02-28T10:27:39.602Z,19.11
2024-02-28T10:30:06.585Z,19.17
2024-02-28T10:32:33.537Z,19.08
2024-02-28T10:35:00.435Z,19.10
2024-02-28T10:37:27.264Z,19.09
2024-02-28T10:39:54.228Z,19.12
2024-02-28T10:42:21.104Z,19.05
2024-02-28T10:44:48.010Z,19.04
2024-02-28T10:47:14.931Z,19.07
2024-02-28T10:49:41.839Z,19.08
2024-02-28T10:52:08.698Z,19.07
2024-02-28T10:54:35.532Z,19.06
2024-02-28T10:57:02.445Z,18.94
2024-02-28T10:59:29.323Z,18.90
2024-02-28T11:01:56.200Z,18.89
2024-02-28T11:04:23.031Z,18.75
2024-02-28T11:06:56.270Z,18.76
2024-02-28T11:09:23.191Z,18.79
2024-02-28T11:11:50.097Z,18.91
2024-02-28T11:14:16.922Z,18.91
2024-02-28T11:16:43.752Z,18.88
2024-02-28T11:19:10.601Z,18.87
2024-02-28T11:21:37.501Z,18.92
2024-02-28T11:24:04.392Z,18.86
2024-02-28T11:26:31.258Z,18.82
2024-02-28T11:28:58.101Z,18.81
2024-02-28T11:31:25.006Z,18.78
2024-02-28T11:33:51.876Z,18.84
2024-02-28T11:36:18.839Z,18.78
2024-02-28T11:38:45.738Z,18.78
2024-02-28T11:41:12.617Z,18.76
2024-02-28T11:43:50.618Z,18.68
2024-02-28T11:46:19.558Z,18.66
2024-02-28T11:48:46.903Z,18.61
2024-02-28T11:51:13.829Z,18.59
2024-02-28T11:53:40.745Z,18.70
2024-02-28T11:56:07.623Z,18.67
2024-02-28T11:58:34.524Z,18.70
2024-02-28T12:01:01.465Z,18.50
2024-02-28T12:03:28.630Z,18.44
2024-02-28T12:05:55.523Z,18.41
2024-02-28T12:08:22.358Z,18.49
2024-02-28T12:10:49.291Z,18.52
2024-02-28T12:13:16.127Z,18.56
2024-02-28T12:15:42.962Z,18.60
2024-02-28T12:18:09.841Z,18.63
2024-02-28T12:20:36.750Z,18.65
2024-02-28T12:23:03.625Z,18.66
2024-02-28T12:25:30.519Z,18.71
2024-02-28T12:27:57.387Z,18.81
2024-02-28T12:30:24.271Z,18.80
2024-02-28T12:32:51.284Z,18.85
2024-02-28T12:35:18.165Z,18.92
2024-02-28T12:37:45.027Z,18.94
2024-02-28T12:40:11.901Z,18.97
2024-02-28T12:42:41.120Z,18.96
2024-02-28T12:45:08.139Z,19.00
2024-02-28T12:47:34.992Z,19.07
2024-02-28T12:50:01.940Z,19.15
2024-02-28T12:52:28.788Z,19.15
2024-02-28T12:54:55.699Z,19.18
2024-02-28T12:57:22.576Z,19.19
2024-02-28T12:59:52.026Z,19.22
2024-02-28T13:02:19.000Z,19.27
2024-02-28T13:04:45.835Z,19.34
2024-02-28T13:07:12.694Z,19.34
2024-02-28T13:09:39.594Z,19.36
2024-02-28T13:12:06.545Z,19.34
2024-02-28T13:14:33.413Z,19.38
2024-02-28T13:17:02.682Z,19.37
2024-02-28T13:19:31.343Z,19.36
2024-02-28T13:21:58.305Z,19.35
2024-02-28T13:24:25.198Z,19.35
2024-02-28T13:26:52.017Z,19.37
2024-02-28T13:29:18.847Z,19.36
2024-02-28T13:31:45.706Z,19.39
2024-02-28T13:34:12.706Z,19.42
2024-02-28T13:36:39.681Z,19.64
2024-02-28T13:39:06.592Z,19.50
2024-02-28T13:41:33.508Z,19.40
2024-02-28T13:44:00.390Z,19.58
2024-02-28T13:46:27.257Z,19.60
2024-02-28T13:48:54.153Z,19.54
2024-02-28T13:51:21.136Z,19.53
2024-02-28T13:53:47.974Z,19.50
2024-02-28T13:56:14.908Z,19.53
2024-02-28T13:58:46.176Z,19.55
2024-02-28T14:01:19.816Z,19.52
2024-02-28T14:03:46.760Z,19.51
2024-02-28T14:06:13.652Z,19.51
2024-02-28T14:08:43.400Z,19.49
2024-02-28T14:11:10.901Z,19.48
2024-02-28T14:13:37.836Z,19.49
2024-02-28T14:16:04.973Z,19.48
2024-02-28T14:18:31.947Z,19.55
2024-02-28T14:20:58.864Z,19.57
2024-02-28T14:23:25.709Z,19.57
2024-02-28T14:25:52.540Z,19.52
2024-02-28T14:28:19.359Z,19.55
2024-02-28T14:30:46.303Z,19.59
2024-02-28T14:33:14.958Z,19.59
2024-02-28T14:35:42.044Z,19.58
2024-02-28T14:38:08.894Z,19.58
2024-02-28T14:40:35.719Z,19.64
2024-02-28T14:43:02.659Z,19.61
2024-02-28T14:45:29.775Z,19.63
2024-02-28T14:47:56.874Z,19.66
2024-02-28T14:50:23.755Z,19.63
2024-02-28T14:52:50.627Z,19.62
2024-02-28T14:55:17.459Z,19.66
2024-02-28T14:57:44.435Z,19.65
2024-02-28T15:00:11.343Z,19.67
2024-02-28T15:02:38.191Z,19.69
2024-02-28T15:05:05.009Z,19.68
2024-02-28T15:07:31.880Z,19.64
2024-02-28T15:09:58.798Z,19.65
2024-02-28T15:12:25.646Z,19.71
2024-02-28T15:14:52.500Z,19.74
2024-02-28T15:17:19.373Z,19.71
2024-02-28T15:19:46.225Z,19.72
2024-02-28T15:22:13.118Z,19.70
2024-02-28T15:24:40.010Z,19.72
2024-02-28T15:27:06.863Z,19.69
2024-02-28T15:29:33.721Z,19.73
2024-02-28T15:32:00.584Z,19.78
2024-02-28T15:34:27.442Z,19.77
2024-02-28T15:36:54.298Z,19.81
2024-02-28T15:39:21.169Z,19.76
2024-02-28T15:41:48.090Z,19.78
2024-02-28T15:44:14.932Z,19.79
2024-02-28T15:46:41.762Z,19.74
2024-02-28T15:49:08.666Z,19.74
2024-02-28T15:51:35.581Z,19.67
2024-02-28T15:54:02.466Z,19.76
2024-02-28T15:56:29.292Z,19.73
2024-02-28T15:58:56.114Z,19.84
2024-02-28T16:01:23.055Z,19.88
2024-02-28T16:03:49.940Z,19.90
2024-02-28T16:06:16.812Z,19.92
2024-02-28T16:08:43.702Z,19.89
2024-02-28T16:11:10.554Z,20.05
2024-02-28T16:13:37.383Z,20.26
2024-02-28T16:16:04.251Z,20.21
2024-02-28T16:18:31.153Z,20.15
2024-02-28T16:20:58.040Z,20.03
2024-02-28T16:23:24.951Z,19.94
2024-02-28T16:25:51.890Z,19.93
2024-02-28T16:28:18.736Z,19.93
2024-02-28T16:30:45.595Z,19.90
2024-02-28T16:33:12.482Z,19.90
2024-02-28T16:35:39.295Z,19.88
2024-02-28T16:38:06.398Z,19.89
2024-02-28T16:40:33.232Z,19.88
2024-02-28T16:43:00.142Z,19.82
2024-02-28T16:45:27.053Z,19.85
2024-02-28T16:47:53.995Z,19.79
2024-02-28T16:50:20.893Z,19.74
2024-02-28T16:52:47.859Z,19.75
2024-02-28T16:55:14.798Z,19.80
2024-02-28T16:57:42.280Z,19.72
2024-02-28T17:00:09.600Z,19.74
2024-02-28T17:02:36.480Z,19.77
2024-02-28T17:05:03.326Z,19.77
2024-02-28T17:07:30.218Z,19.71
2024-02-28T17:09:57.203Z,19.69
2024-02-28T17:12:24.077Z,19.72
2024-02-28T17:14:50.967Z,19.70
2024-02-28T17:17:17.785Z,19.68
2024-02-28T17:19:44.608Z,19.68
2024-02-28T17:22:11.502Z,19.69
2024-02-28T17:24:38.364Z,19.66
2024-02-28T17:27:05.225Z,19.71
2024-02-28T17:29:32.096Z,19.70
2024-02-28T17:31:58.993Z,19.64
2024-02-28T17:34:25.843Z,19.65
2024-02-28T17:36:52.840Z,19.67
2024-02-28T17:39:21.068Z,19.62
2024-02-28T17:41:49.576Z,19.60
2024-02-28T17:44:16.468Z,19.60
2024-02-28T17:46:43.306Z,19.58
2024-02-28T17:49:10.242Z,19.56
2024-02-28T17:51:37.218Z,19.51
2024-02-28T17:54:04.075Z,19.52
2024-02-28T17:56:30.903Z,19.53
2024-02-28T17:58:57.763Z,19.53
2024-02-28T18:01:24.807Z,19.52
2024-02-28T18:03:51.769Z,19.47
2024-02-28T18:06:18.649Z,19.49
2024-02-28T18:08:45.520Z,19.49
2024-02-28T18:11:12.429Z,19.52
2024-02-28T18:13:39.314Z,19.47
2024-02-28T18:16:06.225Z,19.45
2024-02-28T18:18:33.185Z,19.46
2024-02-28T18:21:00.105Z,19.48
2024-02-28T18:23:33.819Z,19.41
2024-02-28T18:26:01.621Z,19.39
2024-02-28T18:28:28.465Z,19.40
2024-02-28T18:30:55.348Z,19.38
2024-02-28T18:33:22.247Z,19.35
2024-02-28T18:35:49.106Z,19.32
2024-02-28T18:38:15.969Z,19.35
2024-02-28T18:40:42.843Z,19.36
2024-02-28T18:43:09.737Z,19.32
2024-02-28T18:45:36.642Z,19.30
2024-02-28T18:48:03.568Z,19.30
2024-02-28T18:50:30.501Z,19.23
2024-02-28T18:52:57.344Z,19.26
2024-02-28T18:55:24.165Z,19.25
2024-02-28T18:57:51.016Z,19.25
2024-02-28T19:00:17.883Z,19.25
2024-02-28T19:02:44.758Z,19.24
2024-02-28T19:05:11.661Z,19.19
2024-02-28T19:07:38.498Z,19.15
2024-02-28T19:10:05.457Z,19.19
2024-02-28T19:12:32.449Z,19.14
2024-02-28T19:14:59.385Z,18.99
2024-02-28T19:17:26.394Z,19.16
2024-02-28T19:19:53.268Z,19.19
2024-02-28T19:22:20.138Z,19.09
2024-02-28T19:24:47.024Z,19.10
2024-02-28T19:27:13.917Z,19.09
2024-02-28T19:29:40.801Z,19.05
2024-02-28T19:32:07.612Z,19.06
2024-02-28T19:34:34.500Z,19.00
2024-02-28T19:37:01.369Z,18.97
2024-02-28T19:39:28.237Z,18.99
2024-02-28T19:41:55.056Z,19.01
2024-02-28T19:44:21.901Z,19.04
2024-02-28T19:46:48.812Z,19.04
2024-02-28T19:49:15.685Z,19.00
2024-02-28T19:51:42.622Z,18.99
2024-02-28T19:54:09.517Z,18.98
2024-02-28T19:56:36.407Z,18.95
2024-02-28T19:59:03.230Z,18.99
2024-02-28T20:01:30.163Z,18.93
2024-02-28T20:03:57.255Z,18.95
2024-02-28T20:06:24.124Z,18.88
2024-02-28T20:08:50.970Z,18.86
2024-02-28T20:11:17.839Z,18.88
2024-02-28T20:13:44.686Z,18.88
2024-02-28T20:16:11.542Z,18.86
2024-02-28T20:18:38.758Z,18.84
2024-02-28T20:21:10.923Z,18.81
2024-02-28T20:23:41.403Z,18.76
2024-02-28T20:26:08.322Z,18.76
2024-02-28T20:28:35.191Z,18.78
2024-02-28T20:31:02.074Z,18.76
2024-02-28T20:33:29.016Z,18.81
2024-02-28T20:35:55.965Z,18.82
2024-02-28T20:38:22.795Z,18.79
2024-02-28T20:40:49.657Z,18.75
2024-02-28T20:43:16.518Z,18.78
2024-02-28T20:45:43.413Z,18.78
2024-02-28T20:48:10.313Z,18.72
2024-02-28T20:50:37.236Z,18.70
2024-02-28T20:53:04.070Z,18.73
2024-02-28T20:55:30.901Z,18.68
2024-02-28T20:57:57.805Z,18.70
2024-02-28T21:00:24.719Z,18.59
2024-02-28T21:02:51.562Z,18.61
2024-02-28T21:05:18.460Z,18.60
2024-02-28T21:07:52.442Z,18.61
2024-02-28T21:10:20.567Z,18.67
2024-02-28T21:12:47.538Z,18.59
2024-02-28T21:15:14.431Z,18.67
2024-02-28T21:17:41.284Z,18.66
2024-02-28T21:20:08.201Z,18.67
2024-02-28T21:22:35.120Z,18.70
2024-02-28T21:25:02.150Z,18.77
2024-02-28T21:27:29.135Z,19.06
2024-02-28T21:29:56.253Z,18.87
2024-02-28T21:32:23.208Z,18.86
2024-02-28T21:34:50.057Z,18.76
2024-02-28T21:37:16.874Z,18.76
2024-02-28T21:39:43.767Z,18.73
2024-02-28T21:42:10.624Z,18.85
2024-02-28T21:44:37.468Z,19.02
2024-02-28T21:47:04.377Z,19.00
2024-02-28T21:49:31.287Z,18.98
2024-02-28T21:51:58.151Z,18.97
2024-02-28T21:54:25.044Z,18.97
2024-02-28T21:56:51.887Z,19.02
2024-02-28T21:59:18.755Z,19.01
2024-02-28T22:01:45.737Z,19.02
2024-02-28T22:04:12.637Z,19.06
2024-02-28T22:06:39.596Z,19.06
2024-02-28T22:09:08.423Z,19.04
2024-02-28T22:11:35.254Z,19.13
2024-02-28T22:14:02.143Z,18.96
2024-02-28T22:16:29.011Z,18.82
2024-02-28T22:18:55.933Z,18.79
2024-02-28T22:21:22.805Z,18.71
2024-02-28T22:23:49.684Z,18.71
2024-02-28T22:26:16.548Z,18.72
2024-02-28T22:28:43.414Z,18.68
2024-02-28T22:31:10.401Z,18.64
2024-02-28T22:33:37.406Z,18.63
2024-02-28T22:36:04.247Z,18.59
2024-02-28T22:38:31.111Z,18.58
2024-02-28T22:40:57.931Z,18.56
2024-02-28T22:43:24.751Z,18.53
2024-02-28T22:45:51.587Z,18.54
2024-02-28T22:48:18.457Z,18.54
2024-02-28T22:50:45.346Z,18.52
2024-02-28T22:53:12.246Z,18.53
2024-02-28T22:55:39.201Z,18.53
2024-02-28T22:58:06.156Z,18.50
2024-02-28T23:00:33.191Z,18.44
2024-02-28T23:03:00.223Z,18.45
2024-02-28T23:05:27.141Z,18.43
2024-02-28T23:07:53.984Z,18.43
2024-02-28T23:10:20.847Z,18.40
2024-02-28T23:12:47.732Z,18.37
2024-02-28T23:15:14.542Z,18.40
2024-02-28T23:17:41.417Z,18.42
2024-02-28T23:20:08.256Z,18.50
2024-02-28T23:22:35.096Z,18.50
2024-02-28T23:25:01.983Z,18.50
2024-02-28T23:27:28.850Z,18.52
2024-02-28T23:29:55.728Z,18.51
2024-02-28T23:32:22.608Z,18.49
2024-02-28T23:34:49.475Z,18.59
2024-02-28T23:37:16.373Z,18.55
2024-02-28T23:39:43.203Z,18.49
2024-02-28T23:42:10.034Z,18.47
2024-02-28T23:44:36.936Z,18.47
2024-02-28T23:47:03.790Z,18.44
2024-02-28T23:49:30.658Z,18.36
2024-02-28T23:51:57.523Z,18.41
2024-02-28T23:54:24.343Z,18.39
2024-02-28T23:56:51.151Z,18.39
2024-02-28T23:59:17.982Z,18.38
